fecha-hora | temperatura | viento dirección-velocidad-rachas | humedad | presión

  • 27-09-2020 03:00:00 | 13.90°C | Nordeste-17.00 km/h - 39.00 km/h | 100.00% | 1003.40 hPa
  • 27-09-2020 02:00:00 | 15.20°C | Nordeste-15.00 km/h - 32.00 km/h | 100.00% | 1002.90 hPa
  • 27-09-2020 01:00:00 | 16.40°C | Noroeste-13.00 km/h - 33.00 km/h | 100.00% | 1002.40 hPa
  • 27-09-2020 00:00:00 | 16.00°C | Oeste-23.00 km/h - 48.00 km/h | 100.00% | 1002.40 hPa
  • 26-09-2020 23:00:00 | 16.40°C | Oeste-33.00 km/h - 52.00 km/h | 100.00% | 1002.20 hPa
  • 26-09-2020 22:00:00 | 16.10°C | Oeste-31.00 km/h - 52.00 km/h | 100.00% | 1002.30 hPa
  • 26-09-2020 21:00:00 | 16.70°C | Oeste-34.00 km/h - 63.00 km/h | 100.00% | 1001.70 hPa
  • 26-09-2020 20:00:00 | 16.20°C | Oeste-34.00 km/h - 59.00 km/h | 100.00% | 1001.60 hPa
  • 26-09-2020 19:00:00 | 16.70°C | Oeste-25.00 km/h - 45.00 km/h | 100.00% | 1001.20 hPa
  • 26-09-2020 18:00:00 | 18.30°C | Oeste-30.00 km/h - 54.00 km/h | 87.00% | 1001.10 hPa
  • 26-09-2020 17:00:00 | 19.50°C | Oeste-31.00 km/h - 54.00 km/h | 73.00% | 1001.30 hPa
  • 26-09-2020 16:00:00 | 18.90°C | Oeste-28.00 km/h - 54.00 km/h | 72.00% | 1002.00 hPa
  • 26-09-2020 15:00:00 | 18.90°C | Oeste-32.00 km/h - 63.00 km/h | 66.00% | 1003.10 hPa
  • 26-09-2020 14:00:00 | 17.60°C | Oeste-33.00 km/h - 58.00 km/h | 69.00% | 1003.90 hPa
  • 26-09-2020 13:00:00 | 17.40°C | Oeste-31.00 km/h - 48.00 km/h | 66.00% | 1004.70 hPa
  • 26-09-2020 12:00:00 | 16.20°C | Oeste-18.00 km/h - 35.00 km/h | 72.00% | 1005.40 hPa
  • 26-09-2020 11:00:00 | 14.80°C | Sudoeste-19.00 km/h - 37.00 km/h | 78.00% | 1006.10 hPa
  • 26-09-2020 10:00:00 | 14.10°C | Sudoeste-21.00 km/h - 32.00 km/h | 80.00% | 1006.60 hPa
  • 26-09-2020 09:00:00 | 13.60°C | Sudoeste-18.00 km/h - 33.00 km/h | 82.00% | 1007.20 hPa
  • 26-09-2020 08:00:00 | 13.80°C | Oeste-18.00 km/h - 37.00 km/h | 82.00% | 1007.50 hPa
  • 26-09-2020 07:00:00 | 12.90°C | Sudoeste-15.00 km/h - 30.00 km/h | 88.00% | 1008.00 hPa
  • 26-09-2020 06:00:00 | 12.40°C | Oeste-12.00 km/h - 28.00 km/h | 95.00% | 1008.80 hPa
  • 26-09-2020 05:00:00 | 12.50°C | Sudoeste-14.00 km/h - 35.00 km/h | 93.00% | 1009.40 hPa
  • 26-09-2020 04:00:00 | 12.20°C | Oeste-16.00 km/h - 26.00 km/h | 95.00% | 1010.00 hPa
    • diseño web asturias Información sobre el estado de las mareas, altura de la marejada, temperatura del agua y otros datos de Gijón en Asturias.

      Surf Gijón